createdAt,value
2023-03-21T00:02:11.190Z,10.48
2023-03-21T00:07:11.128Z,10.46
2023-03-21T00:12:11.049Z,10.42
2023-03-21T00:17:10.987Z,10.35
2023-03-21T00:22:10.918Z,10.30
2023-03-21T00:27:39.428Z,10.30
2023-03-21T00:32:11.815Z,10.26
2023-03-21T00:37:10.727Z,10.25
2023-03-21T00:42:10.651Z,10.25
2023-03-21T00:47:10.635Z,10.25
2023-03-21T00:52:24.719Z,10.25
2023-03-21T00:57:11.494Z,10.23
2023-03-21T01:02:10.410Z,10.25
2023-03-21T01:07:10.328Z,10.22
2023-03-21T01:12:10.255Z,10.22
2023-03-21T01:17:10.195Z,10.20
2023-03-21T01:22:10.120Z,10.22
2023-03-21T01:27:10.072Z,10.17
2023-03-21T01:32:09.988Z,10.16
2023-03-21T01:37:09.930Z,10.17
2023-03-21T01:42:09.854Z,10.15
2023-03-21T01:47:11.944Z,10.13
2023-03-21T01:52:14.153Z,10.12
2023-03-21T01:57:09.714Z,10.12
2023-03-21T02:02:09.592Z,10.10
2023-03-21T02:07:09.532Z,10.10
2023-03-21T02:12:09.460Z,10.10
2023-03-21T02:17:09.398Z,10.05
2023-03-21T02:22:09.337Z,10.04
2023-03-21T02:27:09.268Z,10.01
2023-03-21T02:32:18.215Z,10.01
2023-03-21T02:37:10.174Z,10.01
2023-03-21T02:42:09.067Z,10.02
2023-03-21T02:47:09.104Z,10.02
2023-03-21T02:52:17.028Z,10.02
2023-03-21T02:57:09.900Z,10.05
2023-03-21T03:02:08.802Z,10.02
2023-03-21T03:07:08.744Z,9.95
2023-03-21T03:12:08.670Z,9.92
2023-03-21T03:17:08.611Z,9.92
2023-03-21T03:22:08.537Z,9.94
2023-03-21T03:27:08.479Z,9.94
2023-03-21T03:32:08.564Z,9.92
2023-03-21T03:37:08.346Z,9.91
2023-03-21T03:42:21.721Z,9.84
2023-03-21T03:47:11.819Z,9.84
2023-03-21T03:52:08.146Z,9.84
2023-03-21T03:57:08.080Z,9.79
2023-03-21T04:02:08.075Z,9.75
2023-03-21T04:07:07.955Z,9.71
2023-03-21T04:12:07.885Z,9.64
2023-03-21T04:17:07.827Z,9.64
2023-03-21T04:22:07.757Z,9.61
2023-03-21T04:27:07.699Z,9.60
2023-03-21T04:32:07.666Z,9.60
2023-03-21T04:37:07.566Z,9.55
2023-03-21T04:42:07.495Z,9.54
2023-03-21T04:47:07.436Z,9.50
2023-03-21T04:52:07.360Z,9.49
2023-03-21T04:57:07.284Z,9.45
2023-03-21T05:02:07.207Z,9.43
2023-03-21T05:07:07.147Z,9.47
2023-03-21T05:12:07.075Z,9.50
2023-03-21T05:17:07.086Z,9.50
2023-03-21T05:22:06.960Z,9.54
2023-03-21T05:27:06.898Z,9.55
2023-03-21T05:32:06.827Z,9.61
2023-03-21T05:37:06.765Z,9.63
2023-03-21T05:42:06.696Z,9.67
2023-03-21T05:47:06.686Z,9.72
2023-03-21T05:52:06.565Z,9.75
2023-03-21T05:57:06.503Z,9.80
2023-03-21T06:02:06.428Z,9.84
2023-03-21T06:07:06.373Z,9.89
2023-03-21T06:12:06.305Z,9.94
2023-03-21T06:17:06.245Z,9.95
2023-03-21T06:22:06.180Z,9.97
2023-03-21T06:27:06.113Z,10.01
2023-03-21T06:32:06.036Z,10.05
2023-03-21T06:37:05.985Z,10.12
2023-03-21T06:42:05.914Z,10.17
2023-03-21T06:47:05.889Z,10.26
2023-03-21T06:52:05.784Z,10.35
2023-03-21T06:57:05.717Z,10.42
2023-03-21T07:02:05.762Z,10.50
2023-03-21T07:07:05.596Z,10.56
2023-03-21T07:12:05.522Z,10.59
2023-03-21T07:17:05.464Z,10.71
2023-03-21T07:22:05.382Z,10.93
2023-03-21T07:27:05.332Z,11.16
2023-03-21T07:32:05.248Z,11.47
2023-03-21T07:37:05.200Z,11.93
2023-03-21T07:42:05.115Z,12.36
2023-03-21T07:47:05.089Z,12.64
2023-03-21T07:52:05.184Z,12.82
2023-03-21T07:57:04.928Z,13.13
2023-03-21T08:02:04.929Z,13.34
2023-03-21T08:07:04.798Z,13.45
2023-03-21T08:12:04.721Z,13.64
2023-03-21T08:17:04.757Z,13.76
2023-03-21T08:22:04.587Z,14.12
2023-03-21T08:27:04.534Z,14.58
2023-03-21T08:32:04.458Z,14.72
2023-03-21T08:37:04.451Z,14.72
2023-03-21T08:42:04.336Z,15.10
2023-03-21T08:47:04.284Z,16.13
2023-03-21T08:52:04.197Z,16.30
2023-03-21T08:57:04.150Z,16.19
2023-03-21T09:02:04.106Z,16.08
2023-03-21T09:07:04.018Z,16.08
2023-03-21T09:12:03.932Z,15.95
2023-03-21T09:17:03.874Z,15.92
2023-03-21T09:22:03.800Z,15.98
2023-03-21T09:27:03.743Z,16.08
2023-03-21T09:32:03.670Z,17.08
2023-03-21T09:37:03.612Z,17.71
2023-03-21T09:42:03.559Z,18.09
2023-03-21T09:47:03.554Z,17.46
2023-03-21T09:52:03.420Z,16.91
2023-03-21T09:57:03.339Z,16.42
2023-03-21T10:02:03.288Z,16.10
2023-03-21T10:07:03.210Z,16.41
2023-03-21T10:12:03.169Z,18.28
2023-03-21T10:17:03.075Z,19.20
2023-03-21T10:22:04.114Z,19.28
2023-03-21T10:27:02.950Z,18.66
2023-03-21T10:32:03.020Z,18.30
2023-03-21T10:37:02.821Z,17.79
2023-03-21T10:42:02.775Z,17.52
2023-03-21T10:47:02.916Z,17.60
2023-03-21T10:52:02.630Z,17.52
2023-03-21T10:57:02.556Z,17.59
2023-03-21T11:02:02.544Z,17.34
2023-03-21T11:07:02.428Z,17.29
2023-03-21T11:12:02.380Z,17.31
2023-03-21T11:17:02.359Z,17.05
2023-03-21T11:22:02.257Z,17.02
2023-03-21T11:27:02.175Z,16.97
2023-03-21T11:32:02.159Z,16.91
2023-03-21T11:37:02.047Z,17.05
2023-03-21T11:42:01.997Z,17.42
2023-03-21T11:47:01.935Z,17.59
2023-03-21T11:52:01.864Z,17.73
2023-03-21T11:57:01.776Z,17.82
2023-03-21T12:02:01.718Z,18.04
2023-03-21T12:07:01.643Z,18.10
2023-03-21T12:12:01.592Z,18.44
2023-03-21T12:17:01.507Z,18.71
2023-03-21T12:22:01.451Z,18.60
2023-03-21T12:27:01.377Z,18.50
2023-03-21T12:32:01.325Z,18.33
2023-03-21T12:37:01.256Z,18.25
2023-03-21T12:42:01.182Z,18.34
2023-03-21T12:47:01.164Z,18.43
2023-03-21T12:52:01.054Z,18.55
2023-03-21T12:57:00.976Z,18.62
2023-03-21T13:02:00.920Z,18.63
2023-03-21T13:07:00.847Z,18.58
2023-03-21T13:12:00.784Z,18.65
2023-03-21T13:17:01.472Z,18.90
2023-03-21T13:22:00.666Z,18.89
2023-03-21T13:27:00.597Z,18.90
2023-03-21T13:32:00.576Z,18.89
2023-03-21T13:37:00.485Z,18.81
2023-03-21T13:42:00.393Z,18.84
2023-03-21T13:47:00.472Z,18.93
2023-03-21T13:52:00.306Z,18.81
2023-03-21T13:57:01.393Z,18.63
2023-03-21T14:02:00.146Z,18.50
2023-03-21T14:07:00.122Z,18.33
2023-03-21T14:12:07.023Z,18.12
2023-03-21T14:16:59.936Z,17.97
2023-03-21T14:21:59.877Z,17.97
2023-03-21T14:26:59.823Z,17.88
2023-03-21T14:31:59.752Z,17.88
2023-03-21T14:36:59.686Z,17.91
2023-03-21T14:41:59.613Z,17.93
2023-03-21T14:46:59.557Z,17.99
2023-03-21T14:51:59.480Z,18.14
2023-03-21T14:56:59.416Z,18.22
2023-03-21T15:01:59.403Z,18.22
2023-03-21T15:06:59.297Z,18.17
2023-03-21T15:11:59.215Z,18.10
2023-03-21T15:16:59.149Z,18.00
2023-03-21T15:21:59.080Z,17.85
2023-03-21T15:26:59.022Z,17.78
2023-03-21T15:31:58.958Z,17.62
2023-03-21T15:36:58.879Z,17.45
2023-03-21T15:41:58.827Z,17.39
2023-03-21T15:46:58.783Z,17.31
2023-03-21T15:51:58.685Z,17.26
2023-03-21T15:56:58.609Z,17.14
2023-03-21T16:01:58.599Z,17.01
2023-03-21T16:06:58.477Z,16.83
2023-03-21T16:11:58.416Z,16.65
2023-03-21T16:16:58.343Z,16.50
2023-03-21T16:21:58.287Z,16.38
2023-03-21T16:26:58.220Z,16.30
2023-03-21T16:31:58.192Z,16.22
2023-03-21T16:36:58.093Z,16.15
2023-03-21T16:41:58.023Z,16.04
2023-03-21T16:46:59.042Z,15.92
2023-03-21T16:51:57.895Z,15.86
2023-03-21T16:56:57.829Z,15.84
2023-03-21T17:01:57.765Z,15.77
2023-03-21T17:06:57.702Z,15.72
2023-03-21T17:11:57.632Z,15.65
2023-03-21T17:16:57.634Z,15.52
2023-03-21T17:21:57.513Z,15.41
2023-03-21T17:26:57.433Z,15.30
2023-03-21T17:31:57.375Z,15.16
2023-03-21T17:36:57.354Z,15.06
2023-03-21T17:41:57.235Z,14.91
2023-03-21T17:46:57.170Z,14.81
2023-03-21T17:51:57.104Z,14.69
2023-03-21T17:56:57.044Z,14.54
2023-03-21T18:01:57.086Z,14.43
2023-03-21T18:06:57.441Z,14.32
2023-03-21T18:11:56.839Z,14.23
2023-03-21T18:16:56.768Z,14.10
2023-03-21T18:21:56.724Z,14.02
2023-03-21T18:26:56.629Z,13.92
2023-03-21T18:32:05.868Z,13.80
2023-03-21T18:36:56.496Z,13.70
2023-03-21T18:41:58.011Z,13.66
2023-03-21T18:46:56.389Z,13.61
2023-03-21T18:51:56.330Z,13.56
2023-03-21T19:01:57.301Z,13.49
2023-03-21T19:06:56.090Z,13.46
2023-03-21T19:11:56.050Z,13.36
2023-03-21T19:17:43.601Z,13.22
2023-03-21T19:21:56.923Z,13.16
2023-03-21T19:26:55.819Z,13.13
2023-03-21T19:31:55.850Z,13.04
2023-03-21T19:36:55.744Z,12.93
2023-03-21T19:42:14.724Z,12.85
2023-03-21T19:46:56.636Z,12.80
2023-03-21T19:51:55.508Z,12.76
2023-03-21T19:56:55.436Z,12.68
2023-03-21T20:02:00.945Z,12.60
2023-03-21T20:06:56.333Z,12.52
2023-03-21T20:11:55.259Z,12.46
2023-03-21T20:16:55.547Z,12.41
2023-03-21T20:21:59.886Z,12.39
2023-03-21T20:26:55.058Z,12.38
2023-03-21T20:31:55.198Z,12.35
2023-03-21T20:36:54.999Z,12.34
2023-03-21T20:41:54.878Z,12.30
2023-03-21T20:46:54.817Z,12.28
2023-03-21T20:56:55.729Z,12.20
2023-03-21T21:01:54.781Z,12.17
2023-03-21T21:06:54.515Z,12.16
2023-03-21T21:12:10.254Z,12.08
2023-03-21T21:16:55.703Z,12.05
2023-03-21T21:21:54.569Z,12.03
2023-03-21T21:26:54.271Z,12.01
2023-03-21T21:31:54.204Z,11.94
2023-03-21T21:36:54.131Z,11.87
2023-03-21T21:41:54.074Z,11.86
2023-03-21T21:46:54.063Z,11.80
2023-03-21T21:51:53.947Z,11.75
2023-03-21T21:56:53.878Z,11.69
2023-03-21T22:01:53.801Z,11.68
2023-03-21T22:06:53.727Z,11.63
2023-03-21T22:11:53.668Z,11.62
2023-03-21T22:16:53.595Z,11.59
2023-03-21T22:21:53.538Z,11.55
2023-03-21T22:26:53.520Z,11.48
2023-03-21T22:31:53.531Z,11.45
2023-03-21T22:36:53.338Z,11.40
2023-03-21T22:41:53.292Z,11.35
2023-03-21T22:46:53.208Z,11.26
2023-03-21T22:51:53.163Z,11.13
2023-03-21T22:56:53.081Z,11.10
2023-03-21T23:01:53.033Z,11.04
2023-03-21T23:06:52.957Z,10.98
2023-03-21T23:11:52.896Z,10.92
2023-03-21T23:16:52.827Z,10.81
2023-03-21T23:21:52.755Z,10.75
2023-03-21T23:26:52.696Z,10.71
2023-03-21T23:31:52.622Z,10.67
2023-03-21T23:36:52.566Z,10.62
2023-03-21T23:41:52.500Z,10.58
2023-03-21T23:46:52.429Z,10.49
2023-03-21T23:51:52.360Z,10.40
2023-03-21T23:56:52.283Z,10.31
